createdAt,value
2018-11-28T00:02:33.079Z,30.90
2018-11-28T00:12:37.428Z,30.13
2018-11-28T00:22:41.720Z,25.03
2018-11-28T00:32:45.946Z,23.57
2018-11-28T00:42:50.344Z,30.47
2018-11-28T00:52:54.482Z,24.73
2018-11-28T01:02:58.720Z,23.77
2018-11-28T01:13:02.808Z,34.50
2018-11-28T01:23:06.965Z,28.30
2018-11-28T01:33:11.138Z,25.37
2018-11-28T01:43:15.271Z,47.30
2018-11-28T01:53:19.439Z,45.87
2018-11-28T02:03:23.565Z,39.47
2018-11-28T02:13:27.646Z,35.97
2018-11-28T02:23:31.700Z,46.27
2018-11-28T02:33:35.814Z,44.00
2018-11-28T02:43:39.966Z,52.57
2018-11-28T02:53:44.104Z,40.97
2018-11-28T03:03:48.196Z,39.83
2018-11-28T03:13:52.359Z,37.93
2018-11-28T03:23:56.590Z,49.40
2018-11-28T03:34:00.747Z,48.23
2018-11-28T03:44:05.072Z,43.03
2018-11-28T03:54:09.260Z,35.43
2018-11-28T04:04:13.456Z,37.60
2018-11-28T04:14:17.576Z,33.10
2018-11-28T04:24:21.720Z,40.47
2018-11-28T04:34:25.834Z,45.23
2018-11-28T04:44:30.090Z,44.23
2018-11-28T04:54:34.275Z,36.23
2018-11-28T05:04:38.402Z,40.20
2018-11-28T05:14:42.528Z,40.57
2018-11-28T05:24:46.745Z,48.30
2018-11-28T05:34:50.905Z,38.37
2018-11-28T05:44:55.161Z,37.43
2018-11-28T05:54:59.371Z,33.83
2018-11-28T06:05:03.855Z,32.87
2018-11-28T06:15:10.062Z,37.00
2018-11-28T06:25:16.892Z,38.83
2018-11-28T06:35:20.401Z,33.07
2018-11-28T06:45:24.578Z,34.10
2018-11-28T06:55:28.755Z,28.40
2018-11-28T07:05:32.919Z,33.33
2018-11-28T07:15:37.049Z,28.37
2018-11-28T07:25:41.186Z,29.33
2018-11-28T07:35:46.437Z,23.43
2018-11-28T07:45:51.741Z,26.27
2018-11-28T07:55:55.950Z,23.20
2018-11-28T08:06:00.118Z,21.57
2018-11-28T08:16:04.372Z,21.27
2018-11-28T08:26:08.778Z,30.93
2018-11-28T08:36:13.089Z,27.97
2018-11-28T08:46:17.366Z,30.63
2018-11-28T08:56:21.963Z,28.90
2018-11-28T09:06:26.634Z,28.73
2018-11-28T09:16:31.333Z,22.40
2018-11-28T09:26:35.614Z,25.90
2018-11-28T09:36:39.787Z,21.00
2018-11-28T09:46:44.057Z,22.17
2018-11-28T09:56:48.214Z,17.27
2018-11-28T10:06:52.465Z,22.10
2018-11-28T10:16:57.131Z,17.30
2018-11-28T10:27:00.871Z,19.67
2018-11-28T10:37:05.209Z,17.53
2018-11-28T10:47:09.694Z,20.53
2018-11-28T10:57:13.794Z,16.73
2018-11-28T11:07:23.206Z,17.43
2018-11-28T11:17:27.472Z,17.20
2018-11-28T11:27:31.713Z,15.43
2018-11-28T11:37:36.231Z,13.43
2018-11-28T11:47:40.485Z,13.07
2018-11-28T11:57:44.849Z,9.17
2018-11-28T12:07:49.064Z,11.53
2018-11-28T12:17:53.250Z,13.87
2018-11-28T12:27:57.882Z,13.50
2018-11-28T12:38:02.472Z,12.03
2018-11-28T12:48:06.587Z,17.57
2018-11-28T12:58:14.131Z,17.07
2018-11-28T13:08:18.302Z,23.87
2018-11-28T13:18:22.568Z,19.50
2018-11-28T13:28:26.917Z,15.70
2018-11-28T13:38:31.147Z,18.57
2018-11-28T13:48:35.360Z,15.23
2018-11-28T13:58:39.484Z,15.97
2018-11-28T14:08:43.810Z,16.67
2018-11-28T14:18:48.182Z,11.67
2018-11-28T14:28:52.254Z,16.53
2018-11-28T14:38:56.665Z,13.47
2018-11-28T14:49:00.948Z,20.83
2018-11-28T14:59:05.866Z,19.37
2018-11-28T15:09:15.797Z,24.07
2018-11-28T15:19:20.146Z,23.90
2018-11-28T15:29:24.358Z,17.77
2018-11-28T15:39:28.606Z,22.60
2018-11-28T15:49:32.863Z,21.30
2018-11-28T15:59:36.990Z,26.73
2018-11-28T16:09:46.572Z,24.83
2018-11-28T16:19:50.705Z,20.70
2018-11-28T16:29:55.337Z,19.17
2018-11-28T16:39:59.597Z,18.77
2018-11-28T16:50:04.148Z,20.30
2018-11-28T17:00:11.887Z,19.07
2018-11-28T17:10:20.143Z,19.37
2018-11-28T17:20:25.358Z,18.67
2018-11-28T17:30:30.484Z,17.47
2018-11-28T17:40:34.735Z,18.63
2018-11-28T17:50:38.832Z,20.17
2018-11-28T18:00:42.987Z,21.30
2018-11-28T18:10:47.137Z,17.90
2018-11-28T18:20:51.325Z,16.30
2018-11-28T18:30:55.480Z,19.80
2018-11-28T18:40:59.861Z,16.00
2018-11-28T18:51:04.933Z,20.00
2018-11-28T19:01:09.031Z,16.37
2018-11-28T19:11:13.141Z,15.23
2018-11-28T19:21:17.342Z,16.20
2018-11-28T19:31:21.694Z,17.00
2018-11-28T19:41:26.783Z,15.50
2018-11-28T19:52:33.402Z,19.00
2018-11-28T20:02:37.595Z,19.60
2018-11-28T20:12:41.772Z,21.17
2018-11-28T20:22:46.132Z,22.40
2018-11-28T20:32:50.481Z,19.03
2018-11-28T20:42:59.581Z,23.77
2018-11-28T20:53:10.527Z,18.77
2018-11-28T21:03:14.719Z,22.37
2018-11-28T21:13:19.000Z,17.70
2018-11-28T21:23:23.156Z,29.80
2018-11-28T21:33:27.319Z,32.30
2018-11-28T21:43:31.657Z,35.67
2018-11-28T21:53:36.058Z,43.13
2018-11-28T22:03:40.294Z,41.73
2018-11-28T22:13:44.458Z,32.77
2018-11-28T22:23:48.654Z,34.23
2018-11-28T22:33:52.846Z,39.17
2018-11-28T22:43:56.976Z,40.77
2018-11-28T22:54:01.086Z,29.73
2018-11-28T23:04:05.754Z,30.57
2018-11-28T23:14:10.036Z,44.87
2018-11-28T23:24:14.130Z,37.00
2018-11-28T23:34:18.443Z,33.87
2018-11-28T23:44:22.562Z,45.70
2018-11-28T23:54:26.634Z,39.70
